Jones Prairie, Texas
Current Conditions -  °F | °C
As of 6:15 AM on Friday 28 Nov 2014 (Local Time) from KT35 Reporting Station
Clear Clear  
Wind Chill: 36°   Ceiling: Unl
Heat Index: 41°   Visibility: 10mi
Dew Point: 36°   Wind: 7mph
Humidity: 82%   Direction: 190°S
Pressure: 30.31"   Gusts: NA
Location:  30.8332°N, 96.9826°W
Report Text: KT35 281215Z AUTO 19006KT 10SM CLR 05/02 A3031 RMK AO2 T00500022
Loading
Personal Weather Stations






























Interactive Weather Map New forecast layout! Learn more

10-Day Weather Forecast

Advertisements
Track Severe Weather on mobile